Tiempo atmosférico en la estación meteorológica de Alajar, Huelva (572 m.)



Fecha
DESCASC
Temp. máxima en grados centígrados (hora)
DESCASC
Temp. mínima en grados centígrados (hora)
DESCASC
Temp. media en grados centígrados
DESCASC
Racha de viento máxima en m/sg (hora)
DESCASC
Velocidad máxima media en intervalos de 10 minutos(hora)
DESCASC
Precipitaciones diarias en mm
DESCASC
Precipitaciones de 00:00 a 06:00 en mm
DESCASC
Precipitaciones de 06:00 a 12:00 en mm
DESCASC
Precipitaciones de 12:00 a 18:00 en mm
DESCASC
Precipitaciones de 18:00 a 24:00 en mm
DESCASC
22-11-2020 17.7 (15:00) 9.3 (21:40) 13.5 8.61 (11:50) 5 (03:10) 0 0 0 0 0
21-11-2020 20.1 (15:20) 11.6 (23:59) 15.9 7.22 (22:20) 3.61 (00:10) 0 0 0 0 0
20-11-2020 22.4 (14:20) 15.9 (19:50) 19.1 9.72 (01:10) 5 (01:20) 0 0 0 0 0
19-11-2020 25 (12:40) 17.8 (00:00) 21.4 13.89 (20:20) 8.89 (20:20) 0 0 0 0 0
18-11-2020 24.6 (15:40) 12.6 (00:00) 18.6 5.28 (22:30) 3.61 (22:30) 0 0 0 0 0
17-11-2020 21.6 (15:50) 12.4 (00:00) 17 4.44 (13:40) 2.78 (12:30) 0.2 0 0.2 0 0
16-11-2020 22.4 (15:30) 12.9 (00:00) 17.6 10.56 (09:10) 6.39 (09:10) 0 0 0 0 0
15-11-2020 21.8 (15:10) 13.3 (00:00) 17.5 7.22 (15:30) 4.17 (15:40) 0.2 0.2 0 0 0
14-11-2020 17.2 (14:50) 13.4 (00:00) 15.3 7.78 (05:20) 3.89 (07:50) 9.6 3.2 4.4 0.6 1.4
13-11-2020 16.7 (15:30) 10.3 (00:00) 13.5 6.67 (15:10) 3.89 (17:10) 0 0 0 0 0
12-11-2020 18.8 (16:30) 10.7 (00:00) 14.7 8.89 (06:20) 3.89 (06:10) 0 0 0 0 0
11-11-2020 19.3 (14:30) 11.4 (00:00) 15.3 8.06 (23:10) 4.17 (10:40) 0 0 0 0 0
10-11-2020 19.7 (14:30) 10.8 (00:00) 15.3 8.06 (06:00) 5 (03:20) 0 0 0 0 0
09-11-2020 18.6 (16:00) 10.9 (00:00) 14.8 9.17 (20:00) 6.39 (20:10) 5.6 5.6 0 0 0
08-11-2020 17.5 (14:40) 12.6 (00:00) 15.1 8.33 (15:50) 5 (15:00) 11.4 0 0 0.2 11.2
07-11-2020 16.9 (16:30) 11.1 (00:00) 14 8.61 (15:10) 5.28 (13:10) 3.8 3.6 0 0.2 0
06-11-2020 17.6 (13:00) 11.9 (00:00) 14.8 15.56 (15:50) 9.72 (15:50) 11.6 0.2 0 0 11.4
05-11-2020 17.1 (15:00) 10.8 (00:00) 14 12.78 (10:10) 7.78 (10:10) 18.2 13 5.2 0 0
04-11-2020 15.1 (15:40) 11.4 (00:00) 13.3 10 (22:40) 4.72 (22:40) 10.6 0 0 0 10.6
03-11-2020 18.8 (15:20) 14.4 (00:00) 16.6 16.67 (02:30) 11.39 (02:20) 0.2 0 0.2 0 0
02-11-2020 25.1 (15:40) 14.3 (00:00) 19.7 15 (21:40) 10.28 (21:30) 0 0 0 0 0
01-11-2020 24.7 (14:30) 15 (00:00) 19.9 12.22 (00:40) 8.61 (00:30) 0 0 0 0 0
31-10-2020 25.5 (13:50) 15 (00:00) 20.3 12.5 (19:50) 8.33 (23:50) 0 0 0 0 0
30-10-2020 25.5 (14:50) 15.8 (00:00) 20.7 9.17 (22:30) 6.11 (22:30) 0 0 0 0 0
29-10-2020 24.7 (14:40) 12.6 (00:00) 18.7 6.67 (14:40) 3.61 (14:40) 0 0 0 0 0
28-10-2020 20.8 (14:20) 9.8 (00:00) 15.3 11.39 (20:10) 7.22 (19:50) 0 0 0 0 0
27-10-2020 16.6 (15:20) 7.9 (00:00) 12.3 10.83 (06:00) 7.78 (06:00) 0 0 0 0 0
26-10-2020 14.6 (16:20) 7.6 (00:00) 11.1 13.61 (00:30) 6.67 (12:10) 0 0 0 0 0

Gráficas

Temp. máximas Temp. mínimas Temp. medias Precipitaciones Rachas de viento máximas Velocidades máximas media en intervalos de 10 minutos

Datos horarios

Fecha y hora oficial Temperatura (ºC) Velocidad del viento (km/h) Dirección del viento Racha (km/h) Dirección de racha Precipitación (mm) Presión (hPa) Tendencia (hPa) Humedad (%)
2020-11-24 23:00:00 9.7 4 Nordeste 6 Nordeste 0 952.9 -0.4 100
2020-11-24 22:00:00 10.8 4 Norte 5 Nordeste 0 953 -0.5 100
2020-11-24 21:00:00 11.9 4 Noroeste 6 Noroeste 0 953.2 -0.3 93
2020-11-24 20:00:00 12.1 0 Calma 5 Oeste 0 953.3 -0.1 92
2020-11-24 19:00:00 12.4 3 Sudoeste 9 Sur 0 953.5 -0.4 87
2020-11-24 18:00:00 12.9 5 Sur 13 Sur 0 953.5 -- 81
2020-11-24 17:00:00 13.4 8 Sur 15 Sudoeste 0 953.4 -- 78
2020-11-24 16:00:00 13.6 7 Sur 16 Sur 0 953.9 -- 75
2020-11-24 15:00:00 14.1 10 Sur 21 Sur 0 954.2 -- 69
2020-11-24 14:00:00 14.1 7 Sudoeste 17 Sur 0 955.2 -- 67
2020-11-24 13:00:00 13.3 8 Sudoeste 18 Sudoeste 0 956 -- 67
2020-11-24 12:00:00 12.9 5 Sudoeste 9 Sudoeste 0 957 -- 70
2020-11-24 11:00:00 11.7 3 Oeste 14 Sudoeste 0 957.1 -- 79
2020-11-24 10:00:00 10.5 2 Sur 4 Sudoeste 0 957 -- 85
2020-11-24 09:00:00 7.5 2 Oeste 6 Nordeste 0 956.9 -- 91
2020-11-24 08:00:00 7.2 3 Norte 8 Nordeste 0 956.4 -- 91
2020-11-24 07:00:00 7.2 3 Oeste 8 Nordeste 0 956.2 -- 93
2020-11-24 06:00:00 7.2 2 Nordeste 5 Oeste 0 956.1 -- 93
2020-11-24 05:00:00 7.1 4 Nordeste 6 Nordeste 0 956.3 -- 90
2020-11-24 04:00:00 7.4 5 Nordeste 10 Nordeste 0 956.5 -- 86
2020-11-24 03:00:00 7.5 2 Norte 11 Nordeste 0 956.9 -- 85
2020-11-24 02:00:00 7.9 5 Nordeste 13 Nordeste 0 957.4 -- 83
2020-11-24 01:00:00 8 4 Nordeste 8 Nordeste 0 957.7 -- 82
2020-11-24 00:00:00 8 6 Norte 10 Nordeste 0 957.9 -- 82
2020-11-23 23:00:00 8.1 3 Nordeste 13 Nordeste 0 958.3 -- 83
2020-11-23 22:00:00 8.4 6 Nordeste 13 Nordeste 0 957.9 -- 83
2020-11-23 21:00:00 8.9 4 Norte 9 Nordeste 0 958.3 -- 81
2020-11-23 20:00:00 9.6 6 Nordeste 10 Nordeste 0 958.1 -- 77
2020-11-23 19:00:00 10.5 3 Norte 10 Nordeste 0 958 -- 74
2020-11-23 18:00:00 13.4 2 Sudeste 13 Sur 0 957.8 -- 62
2020-11-23 17:00:00 16 7 Sur 14 Sur 0 957.6 -- 53
2020-11-23 16:00:00 16.9 8 Sur 16 Sur 0 957.5 -- 50
2020-11-23 15:00:00 17.2 7 Sudoeste 17 Sur 0 957.8 -- 47
2020-11-23 14:00:00 16.5 8 Sur 20 Sudeste 0 958.4 -- 45
2020-11-23 13:00:00 15.9 10 Sur 22 Sur 0 959.1 -- 49
2020-11-23 12:00:00 14.8 11 Sur 26 Sudeste 0 959.7 -- 54
2020-11-23 11:00:00 12.8 12 Sudeste 24 Este 0 959.9 -- 60
2020-11-23 10:00:00 11.3 11 Este 23 Este 0 959.4 -- 65
2020-11-23 09:00:00 9.2 8 Este 19 Sudeste 0 959.2 -- 75
2020-11-23 08:00:00 7.4 6 Nordeste 14 Sudeste 0 958.6 -- 85
2020-11-23 07:00:00 7.4 8 Este 14 Este 0 958.2 -- 84
2020-11-23 06:00:00 7.7 3 Noroeste 7 Nordeste 0 958.3 -- 78
2020-11-23 05:00:00 8.1 6 Nordeste 11 Este 0 958.3 -- 71
2020-11-23 04:00:00 9 5 Nordeste 6 Nordeste 0 958.8 -- 66
2020-11-23 03:00:00 9.1 4 Este 7 Nordeste 0 958.7 -- 69
2020-11-23 02:00:00 9.6 3 Norte 7 Nordeste 0 958.7 -- 65
2020-11-23 01:00:00 10 2 Norte 12 Este 0 958.9 -- 63
2020-11-23 00:00:00 10 5 Nordeste 14 Este 0 959 -- 64
2020-11-22 23:00:00 9.6 9 Este 12 Este 0 959.4 -- 69
2020-11-22 22:00:00 10 6 Nordeste 9 Nordeste 0 959.3 -- 75
2020-11-22 21:00:00 10.1 5 Nordeste 8 Nordeste 0 959.1 -- 71
2020-11-22 20:00:00 10.3 4 Nordeste 9 Nordeste 0 958.8 -- 70
2020-11-22 19:00:00 11.3 7 Nordeste 10 Nordeste 0 958.5 -- 70
2020-11-22 18:00:00 14.5 7 Sudeste 17 Sudeste 0 958.2 -- 55
2020-11-22 17:00:00 16.5 10 Sudeste 20 Sudeste 0 958.1 -- 50
2020-11-22 16:00:00 17.1 11 Sudeste 21 Sudeste 0 958 -- 48
2020-11-22 15:00:00 17.3 10 Sudeste 25 Sudeste 0 958.3 -- 50
2020-11-22 14:00:00 17.3 10 Sudeste 26 Sudeste 0 958.9 -- 49
2020-11-22 13:00:00 16.4 12 Sudeste 27 Sudeste 0 959.5 -- 56
2020-11-22 12:00:00 15.4 15 Sudeste 31 Sudeste 0 960 -- 59
2020-11-22 11:00:00 13.2 9 Este 30 Sudeste 0 960.1 -- 65
2020-11-22 10:00:00 12 11 Este 26 Sudeste 0 959.9 -- 73
2020-11-22 09:00:00 10.5 14 Este 25 Este 0 959.5 -- 80
2020-11-22 08:00:00 9.6 10 Este 27 Este 0 959.1 -- 87
2020-11-22 07:00:00 9.9 10 Este 21 Este 0 958.8 -- 89
2020-11-22 06:00:00 10.3 12 Este 25 Este 0 958.7 -- 87
2020-11-22 05:00:00 10.6 12 Este 24 Este 0 958.5 -- 88
2020-11-22 04:00:00 11 12 Este 30 Este 0 958.4 -- 83
2020-11-22 03:00:00 11.4 16 Este 26 Este 0 958.2 -- 81
2020-11-22 02:00:00 11.5 9 Este 25 Este 0 958.2 -- 77
2020-11-22 01:00:00 11.3 9 Este 19 Este 0 958.8 -- 80
2020-11-22 00:00:00 11.7 8 Sudeste 19 Este 0 958.7 -- 75
2020-11-21 23:00:00 12.1 7 Sudeste 26 Este 0 958.6 -- 71
2020-11-21 22:00:00 12.6 8 Este 18 Este 0 958.4 -- 69
2020-11-21 21:00:00 13 6 Este 18 Este 0 958.5 -- 73
2020-11-21 20:00:00 13.3 9 Este 21 Sudeste 0 958.2 -- 80
2020-11-21 19:00:00 13.6 9 Este 13 Este 0 958 -- 79
2020-11-21 18:00:00 16.4 8 Sudeste 17 Sudeste 0 957.5 -- 67
2020-11-21 17:00:00 18.9 8 Sur 17 Sur 0 957.1 -- 55
2020-11-21 16:00:00 19.9 6 Sur 14 Sur 0 956.9 -- 48
2020-11-21 15:00:00 19.8 5 Sur 16 Sur 0 956.9 -- 49
2020-11-21 14:00:00 19.3 12 Sur 20 Sur 0 957.4 -- 50
2020-11-21 13:00:00 18.9 6 Sudeste 17 Sur 0 957.9 -- 54
2020-11-21 12:00:00 17.9 9 Sur 16 Sudeste 0 958.4 -- 56
2020-11-21 11:00:00 15.1 8 Sudeste 23 Sudeste 0 958.5 -- 69
2020-11-21 10:00:00 13.9 8 Sudeste 18 Sudeste 0 958.5 -- 73
2020-11-21 09:00:00 11.7 7 Este 13 Sudeste 0 957.8 -- 68
2020-11-21 08:00:00 12.4 6 Este 17 Este 0 957.4 -- 58
2020-11-21 07:00:00 13 10 Este 21 Este 0 956.5 -- 53
2020-11-21 06:00:00 13.2 10 Este 23 Este 0 956.6 -- 37
2020-11-21 05:00:00 13.1 11 Este 21 Este 0 956.6 -- 37
2020-11-21 04:00:00 13.6 7 Este 14 Nordeste 0 956.7 -- 34
2020-11-21 03:00:00 14.7 8 Este 15 Este 0 956.7 -- 30
2020-11-21 02:00:00 14.3 11 Este 17 Este 0 957.1 -- 32
2020-11-21 01:00:00 15.4 10 Este 22 Este 0 957.7 -- 29
2020-11-21 00:00:00 16.7 12 Este 30 Este 0 957.7 -- 26
2020-11-20 23:00:00 16.4 10 Este 23 Este 0 957.8 -- 27
2020-11-20 22:00:00 16.9 10 Este 24 Este 0 957.8 -- 22
2020-11-20 21:00:00 16.8 9 Este 19 Este 0 957.8 -- 27
2020-11-20 20:00:00 16.5 10 Este 20 Nordeste 0 958 -- 33
2020-11-20 19:00:00 16.3 10 Nordeste 23 Nordeste 0 958 -- 41
2020-11-20 18:00:00 17.7 8 Nordeste 14 Este 0 958.1 -- 42
2020-11-20 17:00:00 21 7 Este 18 Sudeste 0 957.8 -- 31
2020-11-20 16:00:00 21.9 8 Este 22 Norte 0 957.7 -- 39
2020-11-20 15:00:00 21.8 9 Este 24 Nordeste 0 958.2 -- 43
2020-11-20 14:00:00 21.7 7 Nordeste 20 Nordeste 0 958.9 -- 43
2020-11-20 13:00:00 22 7 Sudeste 26 Sudeste 0 959.7 -- 43
2020-11-20 12:00:00 21.7 10 Sudeste 26 Este 0 960.4 -- 42
2020-11-20 11:00:00 20 12 Este 24 Este 0 960.2 -- 46
2020-11-20 10:00:00 18.6 12 Este 27 Este 0 960.1 -- 47
2020-11-20 09:00:00 17 8 Este 20 Este 0 960 -- 53
2020-11-20 08:00:00 17 6 Este 24 Nordeste 0 959.8 -- 52
2020-11-20 07:00:00 17.3 11 Este 26 Este 0 959.8 -- 52
2020-11-20 06:00:00 17.4 13 Este 23 Este 0 960 -- 53
2020-11-20 05:00:00 17.6 12 Este 26 Este 0 959.8 -- 52
2020-11-20 04:00:00 17.6 9 Este 22 Este 0 960.4 -- 50
2020-11-20 03:00:00 18.4 10 Este 30 Este 0 960.6 -- 47
2020-11-20 02:00:00 19 15 Este 35 Nordeste 0 961.1 -- 44
2020-11-20 01:00:00 19.4 17 Nordeste 34 Nordeste 0 961.4 -- 43
2020-11-20 00:00:00 18.1 16 Nordeste 32 Este 0 961.8 -- 53
2020-11-19 23:00:00 19.6 15 Nordeste 41 Nordeste 0 961.9 -- 46
2020-11-19 22:00:00 18.2 23 Nordeste 43 Nordeste 0 962.1 -- 56
2020-11-19 21:00:00 18.3 26 Nordeste 50 Nordeste 0 961.8 -- 56
2020-11-19 20:00:00 18.9 31 Nordeste 45 Nordeste 0 961.6 -- 54
2020-11-19 19:00:00 19.9 24 Nordeste 38 Nordeste 0 961.4 -- 45
2020-11-19 18:00:00 20.8 9 Este 30 Este 0 961 -- 40
2020-11-19 17:00:00 22.4 17 Nordeste 37 Nordeste 0 961.2 -- 38
2020-11-19 16:00:00 23.2 21 Nordeste 37 Nordeste 0 961 -- 38
2020-11-19 15:00:00 24.8 12 Este 31 Este 0 961 -- 32
2020-11-19 14:00:00 24.5 12 Este 32 Este 0 961.1 -- 31
2020-11-19 13:00:00 24.5 13 Este 33 Este 0 961.6 -- 30
2020-11-19 12:00:00 24.2 13 Sudeste 36 Este 0 962.1 -- 31
2020-11-19 11:00:00 22.8 15 Este 31 Este 0 961.7 -- 30
2020-11-19 10:00:00 20.7 8 Este 24 Este 0 961.5 -- 35
2020-11-19 09:00:00 19.6 13 Este 23 Este 0 960.6 -- 36
2020-11-19 08:00:00 19.2 12 Este 22 Nordeste 0 959.8 -- 41
2020-11-19 07:00:00 19 11 Nordeste 21 Este 0 959.4 -- 37
2020-11-19 06:00:00 18.9 13 Este 23 Nordeste 0 959.2 -- 44
2020-11-19 05:00:00 19.3 14 Este 24 Nordeste 0 959.1 -- 44
2020-11-19 04:00:00 19.9 15 Nordeste 24 Este 0 959 -- 35
2020-11-19 03:00:00 19.7 14 Este 25 Este 0 958.9 -- 40
2020-11-19 02:00:00 18 5 Nordeste 15 Este 0 959 -- 49
2020-11-19 01:00:00 18.3 7 Nordeste 13 Nordeste 0 959.4 -- 54
2020-11-19 00:00:00 18.7 8 Nordeste 14 Este 0 959.5 -- 58
2020-11-18 23:00:00 18.6 7 Nordeste 19 Nordeste 0 959.6 -- 60
2020-11-18 22:00:00 18.4 7 Norte 18 Nordeste 0 959.3 -- 61
2020-11-18 21:00:00 17.7 5 Nordeste 10 Nordeste 0 959.2 -- 66
2020-11-18 20:00:00 17.8 5 Nordeste 15 Nordeste 0 959.2 -- 71
2020-11-18 19:00:00 17.6 8 Nordeste 12 Nordeste 0 959.1 -- 73
2020-11-18 18:00:00 20.4 4 Nordeste 6 Oeste 0 958.8 -- 61
2020-11-18 17:00:00 23.4 3 Sudoeste 9 Sudeste 0 958.6 -- 53
2020-11-18 16:00:00 23.9 5 Sudeste 11 Sur 0 958.5 -- 45
2020-11-18 15:00:00 24.1 6 Sur 13 Sudoeste 0 958.6 -- 42
2020-11-18 14:00:00 23.7 6 Sur 13 Sur 0 958.9 -- 46
2020-11-18 13:00:00 23.3 8 Sur 13 Sur 0 959.7 -- 50
2020-11-18 12:00:00 22.2 7 Sudeste 12 Sur 0 960.2 -- 46
2020-11-18 11:00:00 19.9 2 Sur 8 Este 0 960.3 -- 53
2020-11-18 10:00:00 17.4 4 Nordeste 10 Nordeste 0 960.1 -- 62
2020-11-18 09:00:00 14.1 4 Nordeste 11 Nordeste 0 959.8 -- 62
2020-11-18 08:00:00 13.1 4 Nordeste 10 Nordeste 0 959.4 -- 61
2020-11-18 07:00:00 12.9 2 Sur 12 Nordeste 0 959.2 -- 62
2020-11-18 06:00:00 12.8 3 Norte 10 Nordeste 0 959 -- 61
2020-11-18 05:00:00 13 3 Norte 10 Nordeste 0 959 -- 60
2020-11-18 04:00:00 12.9 5 Nordeste 11 Nordeste 0 959.2 -- 66
2020-11-18 03:00:00 13.5 6 Nordeste 10 Nordeste 0 959.2 -- 63
2020-11-18 02:00:00 12.9 0 Calma 8 Noroeste 0 959.7 -- 67
2020-11-18 01:00:00 13.1 2 Sur 4 Este 0 960 -- 70
2020-11-18 00:00:00 13.6 0 Calma 4 Este 0 960.1 -- 72
2020-11-17 23:00:00 13.6 2 Sudeste 8 Nordeste 0 960.2 -- 73
2020-11-17 22:00:00 13.5 2 Sur 5 Noroeste 0 960.2 -- 78
2020-11-17 21:00:00 13.9 4 Nordeste 12 Nordeste 0 960 -- 90
2020-11-17 20:00:00 14.8 6 Nordeste 11 Nordeste 0 959.8 -- 93
2020-11-17 19:00:00 16.2 7 Nordeste 9 Nordeste 0 959.5 -- 87
2020-11-17 18:00:00 18.9 0 Calma 13 Sudoeste 0 959.4 -- 74
2020-11-17 17:00:00 21.1 7 Sudoeste 15 Sudoeste 0 959.2 -- 70
2020-11-17 16:00:00 21.6 9 Sudoeste 16 Sudoeste 0 959.3 -- 69
2020-11-17 15:00:00 21 7 Sur 14 Sudeste 0 959.3 -- 72
2020-11-17 14:00:00 20.8 7 Sur 16 Sudoeste 0 959.6 -- 76
2020-11-17 13:00:00 20.1 9 Sudoeste 15 Sur 0 960 -- 78
2020-11-17 12:00:00 20.3 6 Sur 11 Sudeste 0 960.2 -- 80
2020-11-17 11:00:00 18.1 6 Sur 10 Sur 0 960.2 -- 93
2020-11-17 10:00:00 15.9 2 Sur 7 Nordeste 0 959.9 -- 100
2020-11-17 09:00:00 13.6 4 Nordeste 11 Nordeste 0 959.1 -- 100
2020-11-17 08:00:00 12.8 0 Calma 9 Nordeste 0 958.7 -- 100
2020-11-17 07:00:00 12.8 4 Norte 12 Nordeste 0.2 958.4 -- 100
2020-11-17 06:00:00 12.7 2 Sur 10 Nordeste 0 958.2 -- 100
2020-11-17 05:00:00 13.2 3 Norte 10 Nordeste 0 958.1 -- 100
2020-11-17 04:00:00 13.3 2 Noroeste 9 Nordeste 0 958.4 -- 100
2020-11-17 03:00:00 13.7 6 Nordeste 11 Nordeste 0 958.5 -- 100
2020-11-17 02:00:00 13.9 5 Nordeste 10 Nordeste 0 958.6 -- 100
2020-11-17 01:00:00 14 3 Noroeste 13 Nordeste 0 958.8 -- 100
2020-11-17 00:00:00 14.5 5 Nordeste 11 Nordeste 0 958.9 -- 100
2020-11-16 23:00:00 14.7 9 Nordeste 13 Nordeste 0 958.9 -- 100
2020-11-16 22:00:00 14.5 5 Nordeste 10 Nordeste 0 958.7 -- 100
2020-11-16 21:00:00 15.4 3 Norte 20 Norte 0 958.5 -- 100
2020-11-16 20:00:00 16.3 9 Nordeste 17 Nordeste 0 958 -- 96
2020-11-16 19:00:00 17.1 13 Norte 23 Norte 0 957.7 -- 84
2020-11-16 18:00:00 18.5 12 Norte 21 Nordeste 0 957.3 -- 84
2020-11-16 17:00:00 21.1 5 Oeste 15 Sudoeste 0 957.1 -- 72
2020-11-16 16:00:00 21.7 9 Sudoeste 17 Sudoeste 0 957 -- 66
2020-11-16 15:00:00 22.1 10 Sudoeste 18 Sudoeste 0 957.1 -- 65
2020-11-16 14:00:00 21.6 9 Sudoeste 15 Sur 0 957.5 -- 65
2020-11-16 13:00:00 21.2 6 Sudoeste 12 Sudoeste 0 958 -- 64
2020-11-16 12:00:00 19.8 6 Sudoeste 11 Sudoeste 0 958.3 -- 68
2020-11-16 11:00:00 17.7 6 Sudoeste 9 Sudoeste 0 958.1 -- 80
2020-11-16 10:00:00 16.1 5 Sur 38 Nordeste 0 957.7 -- 89
2020-11-16 09:00:00 14.8 20 Norte 29 Norte 0 956.9 -- 94
2020-11-16 08:00:00 14.5 5 Este 26 Nordeste 0 956.5 -- 100
2020-11-16 07:00:00 15 10 Norte 34 Nordeste 0 956.2 -- 98
2020-11-16 06:00:00 13.2 3 Sudoeste 7 Nordeste 0 955.6 -- 100
2020-11-16 05:00:00 13.3 3 Noroeste 10 Oeste 0 955.7 -- 100
2020-11-16 04:00:00 14.2 3 Sudoeste 22 Norte 0 956 -- 100
2020-11-16 03:00:00 14.8 9 Norte 21 Noroeste 0 956.5 -- 96
2020-11-16 02:00:00 13.4 5 Oeste 8 Norte 0 956.6 -- 100
2020-11-16 01:00:00 13.3 2 Noroeste 7 Sudoeste 0 956.5 -- 100
2020-11-16 00:00:00 13.5 3 Noroeste 9 Nordeste 0 956.4 -- 100
2020-11-15 23:00:00 13.6 0 Calma 8 Nordeste 0 956.3 -- 98
2020-11-15 22:00:00 14.4 0 Calma 10 Nordeste 0 956.4 -- 94
2020-11-15 21:00:00 15.5 7 Este 11 Este 0 956 -- 95
2020-11-15 20:00:00 16.1 4 Este 8 Este 0 955.8 -- 93
2020-11-15 19:00:00 17.5 5 Sur 9 Sudoeste 0 955.6 -- 85
2020-11-15 18:00:00 18.9 7 Sudoeste 24 Sudoeste 0 955.3 -- 79
2020-11-15 17:00:00 20.8 11 Sudoeste 24 Sudoeste 0 955.2 -- 69
2020-11-15 16:00:00 21.6 14 Sudoeste 26 Sudoeste 0 954.7 -- 61
2020-11-15 15:00:00 21.6 13 Sudoeste 23 Sudoeste 0 955 -- 65
2020-11-15 14:00:00 20.9 10 Sudoeste 21 Sudoeste 0 955.4 -- 75
2020-11-15 13:00:00 19.9 11 Sudoeste 19 Sur 0 956.1 -- 77
2020-11-15 12:00:00 18.2 4 Sudeste 13 Sudeste 0 956.5 -- 89
2020-11-15 11:00:00 16.7 4 Sudeste 10 Sur 0 956.4 -- 100
2020-11-15 10:00:00 15.6 3 Sudeste 10 Este 0 956.1 -- 100
2020-11-15 09:00:00 14.5 4 Este 9 Este 0 955.8 -- 100
2020-11-15 08:00:00 14.5 5 Este 8 Este 0 955.4 -- 100
2020-11-15 07:00:00 14.6 4 Este 12 Sur 0 955 -- 100
2020-11-15 06:00:00 14.9 4 Sudeste 6 Este 0 955 -- 100
2020-11-15 05:00:00 15 4 Sudeste 10 Sudeste 0.2 954.9 -- 100
2020-11-15 04:00:00 15 4 Sur 12 Sur 0 955.3 -- 100
2020-11-15 03:00:00 15 5 Sur 16 Sur 0 955.3 -- 100
2020-11-15 02:00:00 15.1 9 Sur 17 Sur 0 955.4 -- 100
2020-11-15 01:00:00 15.2 4 Sur 14 Sur 0 955.6 -- 100
2020-11-15 00:00:00 15.2 7 Sur 12 Sur 0 955.7 -- 100
2020-11-14 23:00:00 15.4 3 Sudeste 8 Sudoeste 0 956 -- 100
2020-11-14 22:00:00 15.5 5 Sur 12 Sudoeste 0.2 955.8 -- 100
2020-11-14 21:00:00 15.6 5 Sur 11 Sudoeste 0 955.5 -- 100
2020-11-14 20:00:00 15.7 3 Sudoeste 8 Sudoeste 1 955.4 -- 100
2020-11-14 19:00:00 15.6 2 Sudoeste 14 Sudoeste 0.2 954.9 -- 100
2020-11-14 18:00:00 15.9 4 Sudoeste 12 Sudoeste 0 954.5 -- 100
2020-11-14 17:00:00 16.5 3 Oeste 10 Sudoeste 0 954.1 -- 98
2020-11-14 16:00:00 16.5 5 Sudoeste 10 Sudoeste 0.2 953.7 -- 100
2020-11-14 15:00:00 16.7 8 Sudoeste 14 Sudoeste 0 953.6 -- 100
2020-11-14 14:00:00 15.5 8 Oeste 14 Sudoeste 0.2 954 -- 100
2020-11-14 13:00:00 15.3 8 Sudoeste 19 Sudoeste 0.2 954.3 -- 100
2020-11-14 12:00:00 14.8 7 Sudoeste 14 Sur 0.4 954.6 -- 100
2020-11-14 11:00:00 14.2 3 Oeste 9 Sudoeste 2.4 954.4 -- 100
2020-11-14 10:00:00 13.8 4 Sudoeste 13 Sudoeste 0.4 954 -- 100
2020-11-14 09:00:00 13.7 6 Sudoeste 14 Sur 0.6 953.5 -- 100
2020-11-14 08:00:00 13.4 8 Sur 24 Sur 0.4 953 -- 100
2020-11-14 07:00:00 14.1 10 Sudoeste 24 Sur 0.2 952.5 -- 100
2020-11-14 06:00:00 14.2 6 Sur 28 Sudoeste 1.2 952.3 -- 100
2020-11-14 05:00:00 14.4 9 Sur 25 Sur 2 952.1 -- 100
2020-11-14 04:00:00 14.4 9 Sur 22 Sur 0 952.6 -- 100
2020-11-14 03:00:00 14.4 10 Sur 19 Sur 0 952.8 -- 100
2020-11-14 02:00:00 14.4 4 Sur 16 Sudoeste 0 953.1 -- 100
2020-11-14 01:00:00 14.4 5 Sudoeste 21 Sudoeste 0 953.6 -- 100
2020-11-14 00:00:00 14.4 8 Sudoeste 21 Sudoeste 0 953.8 -- 100
2020-11-13 23:00:00 14.5 5 Sur 18 Sudeste 0 953.7 -- 100
2020-11-13 22:00:00 14.6 10 Sur 20 Sur 0 953.5 -- 100
2020-11-13 21:00:00 15 5 Sur 17 Sur 0 953.4 -- 99
2020-11-13 20:00:00 15.3 9 Sudoeste 18 Sudoeste 0 953.2 -- 93
2020-11-13 19:00:00 15.4 11 Sur 23 Sur 0 952.7 -- 88
2020-11-13 18:00:00 15.5 12 Sur 22 Sur 0 952.4 -- 85
2020-11-13 17:00:00 16 10 Sur 22 Sur 0 952.3 -- 84
2020-11-13 16:00:00 15.9 10 Sur 24 Sur 0 952.3 -- 84
2020-11-13 15:00:00 16.2 7 Sur 19 Sur 0 952.6 -- 81
2020-11-13 14:00:00 16 7 Sur 21 Sur 0 953 -- 83
2020-11-13 13:00:00 15.5 10 Sur 22 Sudeste 0 953.5 -- 85
2020-11-13 12:00:00 15.1 11 Sur 22 Sudeste 0 954 -- 81
2020-11-13 11:00:00 14.4 8 Sur 16 Sudeste 0 953.9 -- 82
2020-11-13 10:00:00 13.8 6 Sur 14 Sudeste 0 953.6 -- 84
2020-11-13 09:00:00 13.3 4 Sudeste 11 Sur 0 953.2 -- 87
2020-11-13 08:00:00 13.3 6 Sur 14 Sur 0 952.5 -- 90
2020-11-13 07:00:00 12.3 6 Este 9 Este 0 952.2 -- 89
2020-11-13 06:00:00 11.9 5 Nordeste 11 Este 0 952.2 -- 89
2020-11-13 05:00:00 11.1 7 Nordeste 12 Nordeste 0 951.8 -- 92
2020-11-13 04:00:00 10.8 7 Nordeste 11 Este 0 952.1 -- 95
2020-11-13 03:00:00 10.6 8 Nordeste 12 Nordeste 0 952.4 -- 91
2020-11-13 02:00:00 11.2 6 Nordeste 11 Nordeste 0 952.4 -- 89
2020-11-13 01:00:00 11.4 7 Nordeste 11 Nordeste 0 952.6 -- 86
2020-11-13 00:00:00 10.8 6 Nordeste 10 Nordeste 0 952.8 -- 87
2020-11-12 23:00:00 11.5 5 Nordeste 8 Este 0 952.7 -- 83
2020-11-12 22:00:00 11.9 5 Nordeste 10 Nordeste 0 952.7 -- 82
2020-11-12 21:00:00 11.8 6 Nordeste 11 Nordeste 0 952.4 -- 84
2020-11-12 20:00:00 12.1 7 Nordeste 12 Nordeste 0 952.4 -- 81
2020-11-12 19:00:00 13.1 7 Nordeste 11 Nordeste 0 952.2 -- 74
2020-11-12 18:00:00 16.1 5 Sudeste 15 Sur 0 952 -- 59
2020-11-12 17:00:00 17.9 8 Sur 17 Sur 0 951.9 -- 53
2020-11-12 16:00:00 18.4 10 Sur 20 Sur 0 951.9 -- 52
2020-11-12 15:00:00 18 7 Sudeste 20 Sudeste 0 952.1 -- 56
2020-11-12 14:00:00 16.5 13 Sudeste 27 Sudeste 0 952.6 -- 60
2020-11-12 13:00:00 16.2 13 Sudeste 28 Sudeste 0 953.2 -- 61
2020-11-12 12:00:00 16.3 7 Sudeste 23 Sudeste 0 954.1 -- 61
2020-11-12 11:00:00 15 11 Sudeste 28 Sudeste 0 954.1 -- 64
2020-11-12 10:00:00 14.7 10 Sudeste 21 Sudeste 0 954.3 -- 71
2020-11-12 09:00:00 12.6 6 Este 25 Este 0 954.2 -- 78
2020-11-12 08:00:00 12.5 12 Este 25 Este 0 953.6 -- 77
2020-11-12 07:00:00 12.7 10 Este 32 Este 0 953.6 -- 74
2020-11-12 06:00:00 12.7 10 Este 27 Este 0 953.7 -- 74
2020-11-12 05:00:00 12.8 10 Este 21 Este 0 953.9 -- 73
2020-11-12 04:00:00 12.8 7 Sudeste 17 Este 0 954.3 -- 72
2020-11-12 03:00:00 13 6 Este 18 Este 0 954.9 -- 70
2020-11-12 02:00:00 13.1 5 Sudeste 13 Sudeste 0 955.2 -- 71
2020-11-12 01:00:00 13.5 5 Sudeste 23 Este 0 955.7 -- 69
2020-11-12 00:00:00 13.9 10 Este 29 Este 0 955.5 -- 69
2020-11-11 23:00:00 13.7 14 Este 26 Este 0 955.3 -- 72
2020-11-11 22:00:00 13.8 12 Este 22 Este 0 955.5 -- 76
2020-11-11 21:00:00 12 8 Este 11 Este 0 955.5 -- 88
2020-11-11 20:00:00 12.4 9 Nordeste 11 Este 0 955.6 -- 86
2020-11-11 19:00:00 13.2 8 Este 11 Este 0 955.4 -- 82
2020-11-11 18:00:00 15 6 Este 13 Este 0 955 -- 72
2020-11-11 17:00:00 17.8 7 Este 16 Sudeste 0 954.9 -- 59
2020-11-11 16:00:00 17.7 9 Sudeste 18 Sudeste 0 954.7 -- 60
2020-11-11 15:00:00 18.3 7 Sudeste 20 Sudoeste 0 954.9 -- 61
2020-11-11 14:00:00 18.6 10 Sur 22 Sur 0 955.5 -- 60
2020-11-11 13:00:00 18.3 10 Sudeste 25 Sudeste 0 955.9 -- 61
2020-11-11 12:00:00 17.1 12 Sudeste 24 Sudeste 0 956.6 -- 64
2020-11-11 11:00:00 15.8 12 Sudeste 24 Sudeste 0 956.7 -- 70
2020-11-11 10:00:00 14.3 6 Sudeste 18 Este 0 956.6 -- 77
2020-11-11 09:00:00 12.5 6 Este 17 Este 0 956.4 -- 79
2020-11-11 08:00:00 11.6 8 Este 21 Sudeste 0 956.3 -- 86
2020-11-11 07:00:00 11.6 9 Este 16 Este 0 956.2 -- 87
2020-11-11 06:00:00 12.1 7 Este 23 Este 0 956.2 -- 81
2020-11-11 05:00:00 12.2 10 Este 20 Este 0 956.1 -- 80
2020-11-11 04:00:00 12.6 8 Este 15 Este 0 956.9 -- 78
2020-11-11 03:00:00 12.4 7 Este 13 Este 0 957.2 -- 78
2020-11-11 02:00:00 12.9 7 Este 17 Este 0 957.7 -- 74
2020-11-11 01:00:00 12.9 7 Este 17 Este 0 957.8 -- 72
2020-11-11 00:00:00 12 7 Este 13 Este 0 958.2 -- 79
2020-11-10 23:00:00 12 5 Este 17 Este 0 958.1 -- 79
2020-11-10 22:00:00 13.2 8 Este 17 Este 0 957.9 -- 73
2020-11-10 21:00:00 13.3 9 Este 18 Nordeste 0 957.8 -- 72
2020-11-10 20:00:00 13.1 8 Nordeste 12 Este 0 957.7 -- 72
2020-11-10 19:00:00 13.2 7 Nordeste 10 Nordeste 0 957.4 -- 75
2020-11-10 18:00:00 16.6 5 Este 14 Sudeste 0 957.5 -- 59
2020-11-10 17:00:00 18.5 9 Sudeste 21 Este 0 957.5 -- 49
2020-11-10 16:00:00 19.4 7 Sudeste 21 Este 0 957.3 -- 48
2020-11-10 15:00:00 19.5 10 Sudeste 23 Sur 0 957.1 -- 48
2020-11-10 14:00:00 19.1 9 Sudeste 26 Sudeste 0 957.9 -- 52
2020-11-10 13:00:00 18.6 8 Sudeste 22 Este 0 958.6 -- 57
2020-11-10 12:00:00 17.1 9 Este 23 Sudeste 0 958.9 -- 59
2020-11-10 11:00:00 15.9 10 Este 26 Este 0 958.9 -- 62
2020-11-10 10:00:00 14.3 10 Este 17 Este 0 958.8 -- 69
2020-11-10 09:00:00 11.9 5 Norte 19 Norte 0 958.5 -- 82
2020-11-10 08:00:00 10.9 12 Nordeste 20 Nordeste 0 958 -- 93
2020-11-10 07:00:00 11.1 9 Nordeste 27 Nordeste 0 957.6 -- 91
2020-11-10 06:00:00 12.1 17 Nordeste 29 Nordeste 0 957.3 -- 83
2020-11-10 05:00:00 11.5 5 Este 21 Nordeste 0 957.4 -- 88
2020-11-10 04:00:00 11.4 11 Nordeste 27 Norte 0 957.4 -- 88
2020-11-10 03:00:00 12.1 16 Norte 26 Norte 0 957.5 -- 88
2020-11-10 02:00:00 12.2 14 Norte 24 Norte 0 957.6 -- 88
2020-11-10 01:00:00 11.9 3 Sudoeste 20 Norte 0 957.8 0 89
2020-11-10 00:00:00 12.6 9 Norte 28 Norte 0 957.8 -- 85
2020-11-09 23:00:00 12.8 17 Norte 28 Norte 0 957.8 -- 86
2020-11-09 22:00:00 13 18 Norte 28 Norte 0 957.8 -- 84
2020-11-09 21:00:00 13.2 19 Norte 32 Norte 0 957.5 -- 84
2020-11-09 20:00:00 13.4 21 Norte 33 Norte 0 957.3 -- 81
2020-11-09 19:00:00 13.2 13 Norte 18 Norte 0 956.9 -- 76
2020-11-09 18:00:00 13.9 7 Norte 14 Noroeste 0 956.7 -- 77
2020-11-09 17:00:00 16.7 8 Norte 17 Norte 0 956.2 -- 60
2020-11-09 16:00:00 18.3 6 Noroeste 18 Norte 0 956 -- 58
2020-11-09 15:00:00 15.5 10 Norte 17 Norte 0 956.1 -- 64
2020-11-09 14:00:00 16 4 Norte 19 Norte 0 956.3 -- 63
2020-11-09 13:00:00 15.1 5 Norte 18 Norte 0 956.7 -- 72
2020-11-09 12:00:00 14.7 12 Norte 20 Norte 0 957.1 -- 76
2020-11-09 11:00:00 14.3 8 Nordeste 19 Nordeste 0 957 -- 80
2020-11-09 10:00:00 12.9 3 Nordeste 17 Noroeste 0 956.7 -- 91
2020-11-09 09:00:00 11.3 5 Oeste 17 Sur 0 956.2 -- 100
2020-11-09 08:00:00 11 7 Norte 18 Nordeste 0 955.2 -- 100
2020-11-09 07:00:00 11.3 7 Noroeste 18 Nordeste 0 954.8 -- 100
2020-11-09 06:00:00 11.9 8 Nordeste 26 Noroeste 0 954.1 -- 100
2020-11-09 05:00:00 12.6 12 Norte 24 Noroeste 0 954 -- 100
2020-11-09 04:00:00 12.5 15 Norte 26 Norte 0.4 953.9 -- 100
2020-11-09 03:00:00 12.6 16 Norte 28 Noroeste 3.6 954.1 -- 100
2020-11-09 02:00:00 13.5 12 Sudoeste 23 Sudoeste 0.6 954.1 -- 100
2020-11-09 01:00:00 13.4 12 Sudoeste 27 Sudoeste 1 954.5 -- 100
2020-11-09 00:00:00 13.4 14 Sudoeste 28 Sudoeste 0.8 954.7 -- 100
2020-11-08 23:00:00 13.7 15 Sudoeste 29 Sudoeste 3.6 954.7 -- 100
2020-11-08 22:00:00 13.7 11 Sudoeste 28 Sudoeste 2.2 954.6 -- 100
2020-11-08 21:00:00 13.8 9 Sudoeste 22 Sudoeste 4 954.7 -- 100
2020-11-08 20:00:00 14 9 Sudoeste 19 Sudoeste 0.4 954.6 -- 100
2020-11-08 19:00:00 14.1 8 Sudoeste 23 Sudoeste 0.2 954.3 -- 100
2020-11-08 18:00:00 14.6 9 Sudoeste 25 Sudoeste 0 954.1 -- 93
2020-11-08 17:00:00 14.6 12 Sudoeste 28 Sudoeste 0.2 954.1 -- 87
2020-11-08 16:00:00 16.4 15 Sudoeste 30 Sudoeste 0 953.9 -- 73
2020-11-08 15:00:00 16.1 18 Sudoeste 30 Sudoeste 0 954 -- 79
2020-11-08 14:00:00 16.2 16 Sudoeste 26 Sudoeste 0 954.4 -- 79
2020-11-08 13:00:00 14.9 4 Sur 24 Sur 0 955.2 -- 87
2020-11-08 12:00:00 14.3 10 Sur 23 Sur 0 955.8 -- 96
2020-11-08 11:00:00 13.5 6 Sur 21 Oeste 0 955.8 -- 100
2020-11-08 10:00:00 12.9 5 Sur 21 Sur 0 955.9 -- 100
2020-11-08 09:00:00 12.7 7 Sur 23 Sur 0 955.5 -- 100
2020-11-08 08:00:00 12.7 12 Sur 24 Sudeste 0 955.1 -- 100
2020-11-08 07:00:00 12.8 9 Sur 28 Sur 0 955 -- 100
2020-11-08 06:00:00 13 12 Sur 26 Sur 0 955 -- 100
2020-11-08 05:00:00 13 10 Sur 21 Sur 0 954.9 -- 100
2020-11-08 04:00:00 13 6 Sudoeste 16 Sudoeste 0 955.2 -- 100
2020-11-08 03:00:00 13 7 Sur 21 Sur 0 955.4 -- 100
2020-11-08 02:00:00 12.9 12 Sur 23 Sur 0 955.6 -- 100
2020-11-08 01:00:00 12.8 11 Sur 21 Sur 0 955.9 -- 100
2020-11-08 00:00:00 13 9 Sur 20 Sur 0 956.1 -- 100
2020-11-07 23:00:00 13.2 8 Sur 19 Sur 0 956.2 -- 100
2020-11-07 22:00:00 13.4 6 Sur 24 Sur 0 956.1 -- 100
2020-11-07 21:00:00 13.6 6 Sudoeste 22 Sudoeste 0 955.9 -- 95
2020-11-07 20:00:00 13.9 7 Sudoeste 15 Sur 0 955.7 -- 92
2020-11-07 19:00:00 13.9 4 Sudoeste 23 Sudoeste 0 955.3 -- 86
2020-11-07 18:00:00 14.7 16 Sudoeste 27 Sudoeste 0 954.7 -- 79
2020-11-07 17:00:00 15.9 14 Sudoeste 26 Sudoeste 0 954.5 -- 70
2020-11-07 16:00:00 15.7 12 Sudoeste 31 Sudoeste 0 954.2 -- 73
2020-11-07 15:00:00 16 12 Sudoeste 30 Sudoeste 0 954.1 -- 70
2020-11-07 14:00:00 15.8 18 Sudoeste 31 Sur 0.2 954.2 -- 74
2020-11-07 13:00:00 15.9 16 Sudoeste 29 Sudoeste 0 954.3 -- 76
2020-11-07 12:00:00 14.9 8 Oeste 18 Oeste 0 954.3 -- 87
2020-11-07 11:00:00 13 6 Oeste 16 Oeste 0 953.6 -- 100
2020-11-07 10:00:00 12 10 Sudoeste 20 Sudoeste 0 952.7 -- 100
2020-11-07 09:00:00 11.4 7 Oeste 17 Oeste 0 951.5 -- 100
2020-11-07 08:00:00 11.2 5 Oeste 14 Sudoeste 0 949.8 -- 100
2020-11-07 07:00:00 11.3 10 Sudoeste 23 Sudoeste 0 949 -- 100
2020-11-07 06:00:00 11.4 11 Sudoeste 20 Sudoeste 0.8 947.7 -- 100
2020-11-07 05:00:00 11.4 7 Sudoeste 21 Sur 1.6 947 -- 100
2020-11-07 04:00:00 11.5 8 Sur 21 Sur 0.2 946.4 -- 100
2020-11-07 03:00:00 11.5 11 Sur 30 Sur 0 946 -- 100
2020-11-07 02:00:00 11.4 8 Sudoeste 26 Sudoeste 0 946.2 -- 100
2020-11-07 01:00:00 11.4 4 Noroeste 26 Sudoeste 1 945.2 -- 100
2020-11-07 00:00:00 11.9 9 Oeste 38 Oeste 9 946.8 -- 100
2020-11-06 23:00:00 13 5 Sudeste 19 Sur 2.4 945.8 -- 100
2020-11-06 22:00:00 13.4 11 Sudeste 27 Sur 0 945.4 -- 82
2020-11-06 21:00:00 13.5 11 Sur 23 Sudoeste 0 945.9 -- 78
2020-11-06 20:00:00 13 6 Sudoeste 19 Sudoeste 0 946 -- 81
2020-11-06 19:00:00 12.7 6 Sur 27 Sur 0 945.5 -- 87
2020-11-06 18:00:00 12.8 8 Sudoeste 28 Oeste 0 945.8 -- 88
2020-11-06 17:00:00 13.8 7 Oeste 45 Sudoeste 0 945.4 -- 76
2020-11-06 16:00:00 16.6 29 Sudoeste 56 Sudoeste 0 945.5 -- 70
2020-11-06 15:00:00 17 17 Sur 31 Sur 0 943.8 -- 73
2020-11-06 14:00:00 17 14 Sur 36 Sudoeste 0 944.4 -- 76
2020-11-06 13:00:00 17.6 18 Sudoeste 31 Sudoeste 0 945.4 -- 73
2020-11-06 12:00:00 16.7 10 Sur 35 Sur 0 946 2.4 70
2020-11-06 11:00:00 16.7 10 Sur 36 Sur 0 945.9 -- 63
2020-11-06 10:00:00 16 13 Sur 28 Sur 0 945.2 -- 60
2020-11-06 09:00:00 16.8 12 Sudeste 39 Este 0 943.6 -- 52
2020-11-06 08:00:00 15.7 15 Este 30 Este 0 943.4 -- 59
2020-11-06 07:00:00 14.5 13 Este 26 Este 0 944.4 -- 70
2020-11-06 06:00:00 13.2 9 Este 20 Sudeste 0 945.3 -- 85
2020-11-06 05:00:00 14.7 9 Sur 28 Sur 0.2 946.4 -- 73
2020-11-06 04:00:00 14.5 6 Este 28 Sur 0 946.6 -- 72
2020-11-06 03:00:00 14.2 8 Este 20 Sur 0 946.9 -- 78
2020-11-06 02:00:00 14.1 7 Sudeste 20 Sudeste 0 947 -- 79
2020-11-06 01:00:00 14.4 11 Sur 29 Sur 0 947.5 -- 77
2020-11-06 00:00:00 14.3 12 Sur 22 Sur 0 947.2 -- 79
2020-11-05 23:00:00 14.1 12 Sudeste 24 Sudeste 0 946.5 -- 82
2020-11-05 22:00:00 14 8 Sur 26 Sudeste 0 946.1 -- 83
2020-11-05 21:00:00 14.1 12 Sudeste 32 Este 0 945.8 -- 86
2020-11-05 20:00:00 14.2 17 Sudeste 35 Sudeste 0 945.6 -- 90
2020-11-05 19:00:00 14.5 10 Sudeste 29 Sudeste 0 945.5 -- 93
2020-11-05 18:00:00 14.8 10 Sudeste 24 Sudeste 0 945.1 -- 84
2020-11-05 17:00:00 15.4 12 Sudeste 33 Sur 0 944.8 -- 78
2020-11-05 16:00:00 16.7 15 Sudeste 32 Sur 0 944.9 -- 67
2020-11-05 15:00:00 17 13 Sudeste 38 Sur 0 945.3 -1.5 72
2020-11-05 14:00:00 14.6 20 Sur 39 Sur 0 946 -- 78
2020-11-05 13:00:00 14.1 19 Sur 41 Sur 0 946.3 -- 86
2020-11-05 12:00:00 12.6 19 Sur 39 Sur 0 946.8 1 99
2020-11-05 11:00:00 12 16 Sur 46 Sur 0 946.9 -- 100
2020-11-05 10:00:00 12 22 Sur 43 Sur 1.2 946.3 -- 100
2020-11-05 09:00:00 11.7 13 Sur 34 Sur 0.6 945.8 -- 100
2020-11-05 08:00:00 11.5 18 Sur 34 Sur 1.4 944.9 -- 100
2020-11-05 07:00:00 11.4 14 Sudeste 27 Sudeste 2 944.4 -- 100
2020-11-05 06:00:00 11.1 8 Sudeste 17 Sudeste 1.6 943.6 -- 100
2020-11-05 05:00:00 10.9 9 Este 25 Este 3.4 943.6 -- 100
2020-11-05 04:00:00 11.6 10 Sudeste 31 Sudeste 2.4 944.2 -- 100
2020-11-05 03:00:00 12.2 13 Sudeste 35 Este 1.8 944.3 -- 100
2020-11-05 02:00:00 12.3 18 Este 35 Este 0.6 944.1 -- 100
2020-11-05 01:00:00 11.9 9 Este 22 Este 3.2 944.8 -- 100
2020-11-05 00:00:00 11.8 12 Este 25 Este 3 945.8 -- 100
2020-11-04 23:00:00 11.4 3 Este 36 Sur 5.4 946 -- 100
2020-11-04 22:00:00 13 9 Sudeste 28 Sur 0 945.5 -- 100
2020-11-04 21:00:00 13.1 10 Sudeste 28 Sudeste 1.2 944.7 -- 100
2020-11-04 20:00:00 12.8 9 Sudeste 14 Este 0 944.8 -- 100
2020-11-04 19:00:00 13 6 Sudeste 14 Sudoeste 1 945.2 -- 100
2020-11-04 18:00:00 13.9 6 Sudoeste 24 Sudoeste 0 945.3 -- 84
2020-11-04 17:00:00 14.3 6 Sur 24 Sudoeste 0 945.9 -- 92
2020-11-04 16:00:00 14.7 14 Sudoeste 23 Sudoeste 0 946.3 -- 88
2020-11-04 15:00:00 14.5 6 Sudoeste 17 Sudoeste 0 947 -- 96
2020-11-04 14:00:00 13.5 8 Sudoeste 18 Sur 0 948 -- 100
2020-11-04 13:00:00 13.8 9 Sudoeste 21 Sudoeste 0 948.8 -- 100
2020-11-04 12:00:00 13.9 8 Sur 15 Sur 0 949.6 -- 100
2020-11-04 11:00:00 13.7 6 Sur 17 Sur 0 950.2 -0.9 100
2020-11-04 10:00:00 13.9 8 Sudoeste 14 Sudoeste 0 950.8 -- 100
2020-11-04 09:00:00 14.3 4 Sudoeste 7 Sudoeste 0 950.9 -- 96
2020-11-04 08:00:00 12.7 3 Este 7 Nordeste 0 951.1 -- 100
2020-11-04 07:00:00 12.3 2 Noroeste 8 Nordeste 0 951.5 -- 95
2020-11-04 06:00:00 12.2 0 Calma 9 Nordeste 0 952 -- 93
2020-11-04 05:00:00 12.6 4 Este 8 Nordeste 0 952.5 -- 90
2020-11-04 04:00:00 12.8 5 Nordeste 8 Oeste 0 953 -- 87
2020-11-04 03:00:00 12.7 0 Calma 10 Oeste 0 953.8 -- 89
2020-11-04 02:00:00 13.3 3 Sudeste 7 Nordeste 0 954.1 -- 86
2020-11-04 01:00:00 14.2 2 Este 9 Nordeste 0 954.7 -- 82
2020-11-04 00:00:00 14.7 5 Norte 9 Norte 0 955.4 -- 80
2020-11-03 23:00:00 14.9 7 Nordeste 26 Norte 0 955.5 -- 80
2020-11-03 22:00:00 15.7 11 Norte 33 Nordeste 0 955.9 -- 78
2020-11-03 21:00:00 16 21 Norte 37 Norte 0 956.1 -- 82
2020-11-03 20:00:00 16.2 18 Norte 32 Nordeste 0 956.1 -- 85
2020-11-03 19:00:00 16.7 23 Norte 34 Nordeste 0 956.1 -- 84
2020-11-03 18:00:00 17.1 21 Norte 33 Nordeste 0 956.1 -- 83
2020-11-03 17:00:00 18.4 5 Sudoeste 24 Nordeste 0 956.3 -- 79
2020-11-03 16:00:00 18.2 10 Norte 27 Norte 0 956.3 -- 79
2020-11-03 15:00:00 18.3 8 Norte 21 Nordeste 0 956.4 -- 76
2020-11-03 14:00:00 17.4 8 Norte 29 Norte 0 956.6 -- 84
2020-11-03 13:00:00 16.9 20 Norte 33 Norte 0 957.1 -- 88
2020-11-03 12:00:00 15.7 19 Norte 34 Norte 0 957.3 -- 94
2020-11-03 11:00:00 16 14 Norte 25 Norte 0 957.1 -- 92
2020-11-03 10:00:00 15.2 13 Norte 30 Norte 0.2 957 -- 100
2020-11-03 09:00:00 16.2 4 Oeste 22 Noroeste 0 956.5 -- 91
2020-11-03 08:00:00 16.5 3 Sur 26 Nordeste 0 956 -- 82
2020-11-03 07:00:00 16.2 16 Nordeste 42 Norte 0 956.1 -- 90
2020-11-03 06:00:00 16.1 29 Norte 49 Norte 0 955.7 -- 91
2020-11-03 05:00:00 16 33 Norte 55 Norte 0 955.3 -- 90
2020-11-03 04:00:00 15.7 32 Norte 52 Nordeste 0 955.6 -- 92
2020-11-03 03:00:00 16.1 33 Norte 60 Nordeste 0 955.8 -- 84
2020-11-03 02:00:00 15.7 36 Norte 51 Norte 0 955.6 -- 95
2020-11-03 01:00:00 16.4 34 Norte 52 Nordeste 0 955.9 -- 85
2020-11-03 00:00:00 16.1 33 Norte 51 Norte 0 956 -- 91
2020-11-02 23:00:00 16 35 Norte 52 Nordeste 0 956.2 -- 94
2020-11-02 22:00:00 16.4 33 Norte 54 Norte 0 956 -- 92
2020-11-02 21:00:00 16.8 31 Norte 50 Nordeste 0 956.3 -- 87
2020-11-02 20:00:00 16.9 29 Norte 50 Nordeste 0 956.1 -- 90
2020-11-02 19:00:00 17 28 Norte 48 Nordeste 0 955.8 -- 87
2020-11-02 18:00:00 18.6 20 Norte 33 Nordeste 0 955.5 -- 70
2020-11-02 17:00:00 21.2 13 Norte 18 Norte 0 955.5 -- 66
2020-11-02 16:00:00 24.3 5 Noroeste 12 Sudoeste 0 955.4 -- 48
2020-11-02 15:00:00 24.6 4 Oeste 14 Oeste 0 955.6 -- 42
2020-11-02 14:00:00 24.7 6 Sudoeste 13 Sudoeste 0 956.1 -- 44
2020-11-02 13:00:00 23 9 Norte 17 Noroeste 0 956.7 -- 46
2020-11-02 12:00:00 23.2 5 Sur 10 Sur 0 957.2 -- 41
2020-11-02 11:00:00 20.8 4 Sudoeste 6 Sur 0 957.2 -- 53
2020-11-02 10:00:00 17.5 5 Norte 7 Nordeste 0 956.9 -- 62
2020-11-02 09:00:00 16.7 4 Norte 12 Nordeste 0 956.5 -- 66
2020-11-02 08:00:00 15.2 4 Norte 12 Nordeste 0 956 -- 73
2020-11-02 07:00:00 14.9 6 Norte 15 Norte 0 956 -- 71
2020-11-02 06:00:00 15 6 Norte 9 Nordeste 0 955.9 -- 69
2020-11-02 05:00:00 15.4 5 Norte 10 Norte 0 955.9 -- 69
2020-11-02 04:00:00 15.1 2 Noroeste 7 Noroeste 0 955.9 -- 71
2020-11-02 03:00:00 14.3 3 Este 9 Nordeste 0 956.4 -- 78
2020-11-02 02:00:00 14.5 5 Nordeste 9 Nordeste 0 956.6 -- 77
2020-11-02 01:00:00 14.8 6 Nordeste 9 Nordeste 0 957 -- 76
2020-11-02 00:00:00 15 2 Sur 10 Nordeste 0 957.2 -- 75
2020-11-01 23:00:00 15.8 6 Nordeste 10 Nordeste 0 957.4 -- 74
2020-11-01 22:00:00 16.9 7 Nordeste 23 Nordeste 0 957.3 -- 72
2020-11-01 21:00:00 17.2 4 Nordeste 32 Norte 0 957.2 -- 73
2020-11-01 20:00:00 17.6 17 Norte 39 Nordeste 0 957 -- 76
2020-11-01 19:00:00 18.9 20 Norte 30 Norte 0 956.9 -- 67
2020-11-01 18:00:00 20.4 8 Norte 19 Norte 0 956.8 -- 61
2020-11-01 17:00:00 21.8 10 Norte 21 Norte 0 957.1 -- 58
2020-11-01 16:00:00 21.7 12 Norte 22 Norte 0 957.4 -- 62
2020-11-01 15:00:00 23.7 6 Sudoeste 12 Sudoeste 0 957.6 -- 45
2020-11-01 14:00:00 24.1 6 Oeste 13 Sudoeste 0 957.9 -- 48
2020-11-01 13:00:00 23.5 5 Sur 11 Sudoeste 0 958.8 -- 42
2020-11-01 12:00:00 22.5 8 Sur 12 Sur 0 959.2 -- 45
2020-11-01 11:00:00 21.3 7 Este 17 Norte 0 959.2 -- 51
2020-11-01 10:00:00 18.8 12 Nordeste 26 Norte 0 959.1 -- 62
2020-11-01 09:00:00 17.9 7 Norte 24 Nordeste 0 958.4 -- 64
2020-11-01 08:00:00 16.3 7 Este 18 Norte 0 957.9 -- 66
2020-11-01 07:00:00 15.9 7 Nordeste 18 Nordeste 0 957.8 -- 69
2020-11-01 06:00:00 16.6 8 Nordeste 27 Norte 0 958 -- 70
2020-11-01 05:00:00 16.9 12 Nordeste 26 Norte 0 957.9 -- 69
2020-11-01 04:00:00 17.2 15 Norte 31 Norte 0 958.3 -- 69
2020-11-01 03:00:00 17.3 14 Norte 26 Norte 0 958.6 -- 69
2020-11-01 02:00:00 16.9 13 Nordeste 40 Norte 0 958.8 -- 71
2020-11-01 01:00:00 17.2 29 Norte 44 Nordeste 0 958.9 -- 70
2020-11-01 00:00:00 18.1 28 Norte 40 Norte 0 959.2 -- 63
2020-10-31 23:00:00 18.3 22 Norte 35 Norte 0 959.1 -- 61
2020-10-31 22:00:00 18.2 24 Norte 37 Nordeste 0 958.8 -- 66
2020-10-31 21:00:00 18.5 27 Norte 39 Norte 0 958.6 -- 64
2020-10-31 20:00:00 18.8 24 Norte 45 Nordeste 0 958.7 -- 60
2020-10-31 19:00:00 19.5 21 Norte 31 Nordeste 0 958.2 -- 58
2020-10-31 18:00:00 20.9 14 Norte 25 Norte 0 957.7 -- 52
2020-10-31 17:00:00 22.4 16 Norte 23 Norte 0 957.9 -- 47
2020-10-31 16:00:00 23.5 14 Norte 26 Norte 0 957.9 -- 46
2020-10-31 15:00:00 23.9 10 Norte 21 Norte 0 958 -- 47
2020-10-31 14:00:00 23.6 11 Norte 27 Nordeste 0 958.7 -- 48
2020-10-31 13:00:00 24.4 4 Sur 17 Sur 0 959.1 -- 38
2020-10-31 12:00:00 23.4 8 Sudeste 18 Sur 0 959.1 -- 46
2020-10-31 11:00:00 21.3 10 Norte 26 Nordeste 0 959.4 -- 48
2020-10-31 10:00:00 19.7 7 Norte 14 Nordeste 0 959.5 -- 50
2020-10-31 09:00:00 16.2 2 Oeste 8 Nordeste 0 958.8 -- 63
2020-10-31 08:00:00 15.4 5 Norte 9 Nordeste 0 958.1 -- 67
2020-10-31 07:00:00 16.1 6 Nordeste 17 Nordeste 0 957.9 -- 66
2020-10-31 06:00:00 15.7 3 Sudoeste 13 Nordeste 0 957.9 -- 66
2020-10-31 05:00:00 15.5 6 Nordeste 9 Nordeste 0 957.5 -- 64
2020-10-31 04:00:00 16.5 2 Sudoeste 14 Nordeste 0 957.5 -- 62
2020-10-31 03:00:00 17.1 4 Nordeste 20 Nordeste 0 957.7 -- 63
2020-10-31 02:00:00 18.4 11 Norte 21 Norte 0 957.9 -- 60
2020-10-31 01:00:00 18.6 9 Norte 21 Norte 0 957.8 -- 59
2020-10-31 00:00:00 18 6 Norte 27 Norte 0 957.9 -- 62
2020-10-30 23:00:00 18.8 18 Norte 33 Norte 0 957.9 -- 56
2020-10-30 22:00:00 18.3 12 Norte 24 Nordeste 0 958 -- 56
2020-10-30 21:00:00 18 10 Norte 16 Norte 0 957.5 -- 55
2020-10-30 20:00:00 17.7 9 Norte 14 Norte 0 957.7 -- 58
2020-10-30 19:00:00 18 4 Norte 12 Nordeste 0 957.3 -- 62
2020-10-30 18:00:00 21.8 3 Noroeste 6 Oeste 0 957.3 -- 49
2020-10-30 17:00:00 24.2 3 Sudoeste 10 Sur 0 957 -- 39
2020-10-30 16:00:00 23.5 6 Oeste 14 Sudoeste 0 957.1 -- 41
2020-10-30 15:00:00 24.5 7 Sur 15 Sudoeste 0 957.2 -- 38
2020-10-30 14:00:00 24.5 6 Sur 15 Sur 0 957.6 -- 37
2020-10-30 13:00:00 24 6 Sur 15 Sur 0 958.1 -- 37
2020-10-30 12:00:00 22.2 10 Sudeste 19 Sudeste 0 958.5 -- 43
2020-10-30 11:00:00 20.8 9 Sudeste 24 Sudeste 0 958.7 -- 49
2020-10-30 10:00:00 19.1 9 Sudeste 20 Este 0 958.5 -- 52
2020-10-30 09:00:00 17.4 8 Este 27 Este 0 958.1 -- 54
2020-10-30 08:00:00 16.3 11 Este 22 Este 0 957.7 -- 58
2020-10-30 07:00:00 16.1 9 Este 24 Este 0 957.5 -- 58
2020-10-30 06:00:00 17.1 10 Este 22 Este 0 957.3 -- 54
2020-10-30 05:00:00 17 7 Este 23 Este 0 957.2 -- 54
2020-10-30 04:00:00 17.1 11 Este 26 Este 0 957.5 -- 54
2020-10-30 03:00:00 17.3 12 Este 22 Este 0 957.6 -- 52
2020-10-30 02:00:00 16.8 7 Este 15 Este 0 957.7 -- 54
2020-10-30 01:00:00 17 8 Este 17 Este 0 957.9 -- 54
2020-10-30 00:00:00 16.3 6 Este 13 Este 0 958.2 -- 57
2020-10-29 23:00:00 16 9 Este 12 Este 0 958.3 -- 58
2020-10-29 22:00:00 15.4 8 Nordeste 12 Nordeste 0 958.1 -- 63
2020-10-29 21:00:00 16.5 6 Nordeste 11 Nordeste 0 957.9 -- 58
2020-10-29 20:00:00 17 8 Nordeste 14 Nordeste 0 957.9 -- 55
2020-10-29 19:00:00 18.1 8 Nordeste 11 Este 0 957.5 -- 53
2020-10-29 18:00:00 21.8 6 Sudeste 16 Sudeste 0 957.3 -- 41
2020-10-29 17:00:00 23.6 10 Sur 22 Sudeste 0 957.2 -- 37
2020-10-29 16:00:00 24.1 11 Sudeste 21 Sudeste 0 957 -- 38
2020-10-29 15:00:00 24.4 10 Sur 24 Sur 0 957.1 -- 39
2020-10-29 14:00:00 24.2 12 Sur 21 Sur 0 957.7 -- 42
2020-10-29 13:00:00 23.2 10 Sudeste 22 Sudeste 0 958.4 -- 42
2020-10-29 12:00:00 22.2 10 Sudeste 19 Sudeste 0 958.9 -- 50
2020-10-29 11:00:00 20.7 6 Sur 15 Sudeste 0 958.9 -- 59
2020-10-29 10:00:00 17.7 5 Sudeste 11 Sur 0 958.8 -- 76
2020-10-29 09:00:00 15.2 3 Este 10 Nordeste 0 958.3 -- 88
2020-10-29 08:00:00 12.8 3 Nordeste 10 Nordeste 0 957.8 -- 98
2020-10-29 07:00:00 12.6 2 Oeste 6 Nordeste 0 957.4 -- 100
2020-10-29 06:00:00 12.9 2 Sur 9 Nordeste 0 957.2 -- 97
2020-10-29 05:00:00 12.9 3 Sudeste 13 Nordeste 0 957.1 -- 98
2020-10-29 04:00:00 13.1 4 Nordeste 8 Nordeste 0 957 -- 97
2020-10-29 03:00:00 13.7 6 Nordeste 8 Nordeste 0 957.2 -- 95
2020-10-29 02:00:00 13.6 4 Nordeste 10 Nordeste 0 957.2 -- 97
2020-10-29 01:00:00 14.4 8 Norte 14 Norte 0 957.4 -- 91
2020-10-29 00:00:00 14.5 3 Nordeste 28 Nordeste 0 957.5 -- 90
2020-10-28 23:00:00 14.8 12 Nordeste 31 Nordeste 0 957.8 -- 90
2020-10-28 22:00:00 14.8 10 Nordeste 29 Nordeste 0 957.7 -- 94
2020-10-28 21:00:00 15.1 11 Noroeste 41 Nordeste 0 957.5 -- 93
2020-10-28 20:00:00 16.2 24 Norte 41 Norte 0 957 -- 82
2020-10-28 19:00:00 17.1 17 Norte 28 Norte 0 956.4 -- 76
2020-10-28 18:00:00 18.7 11 Norte 24 Nordeste 0 956 -- 68
2020-10-28 17:00:00 20 8 Nordeste 23 Nordeste 0 956 -- 62
2020-10-28 16:00:00 20.1 10 Norte 26 Noroeste 0 955.9 -- 62
2020-10-28 15:00:00 19.8 12 Norte 26 Norte 0 956.2 -- 63
2020-10-28 14:00:00 20.3 7 Norte 15 Sudeste 0 956.3 -- 58
2020-10-28 13:00:00 20 5 Sudeste 13 Sudeste 0 956.7 -- 60
2020-10-28 12:00:00 17.7 4 Sudoeste 10 Sur 0 957.1 -- 63
2020-10-28 11:00:00 16.3 4 Sur 11 Sudoeste 0 956.9 -- 67
2020-10-28 10:00:00 14 6 Este 14 Norte 0 956.5 -- 78
2020-10-28 09:00:00 12.3 0 Calma 15 Norte 0 955.9 -- 83
2020-10-28 08:00:00 10.6 4 Nordeste 9 Norte 0 955.2 -- 87
2020-10-28 07:00:00 10.1 3 Norte 9 Norte 0 954.9 -- 87
2020-10-28 06:00:00 11.3 5 Nordeste 17 Norte 0 954.6 -- 79
2020-10-28 05:00:00 10.4 9 Norte 14 Nordeste 0 954.4 -- 84
2020-10-28 04:00:00 11 8 Norte 27 Norte 0 954.5 -- 80
2020-10-28 03:00:00 11.1 5 Norte 23 Nordeste 0 954.8 -- 79
2020-10-28 02:00:00 11.7 7 Norte 27 Nordeste 0 954.7 -- 74
2020-10-28 01:00:00 11.8 11 Norte 29 Norte 0 955 -- 74
2020-10-28 00:00:00 12.1 18 Norte 30 Norte 0 955.1 -- 72
2020-10-27 23:00:00 12.2 17 Norte 30 Norte 0 955.2 -- 71
2020-10-27 22:00:00 12.4 19 Norte 32 Norte 0 954.9 -- 70
2020-10-27 21:00:00 11.8 18 Norte 30 Norte 0 954.6 -- 73
2020-10-27 20:00:00 10.7 9 Norte 18 Norte 0 954.8 -- 80
2020-10-27 19:00:00 12.4 9 Norte 26 Noroeste 0 954.8 -- 70
2020-10-27 18:00:00 14.1 12 Norte 22 Norte 0 954.4 -- 62
2020-10-27 17:00:00 15.5 13 Norte 25 Noroeste 0 954.3 -- 52
2020-10-27 16:00:00 16.5 10 Nordeste 24 Nordeste 0 954.4 -- 48
2020-10-27 15:00:00 16.2 9 Norte 22 Norte 0 954.5 -- 47
2020-10-27 14:00:00 15.5 10 Noroeste 26 Noroeste 0 955 -- 50
2020-10-27 13:00:00 15 11 Nordeste 24 Nordeste 0 955.5 -- 52
2020-10-27 12:00:00 14.5 6 Nordeste 22 Nordeste 0 956 -- 54
2020-10-27 11:00:00 12.8 7 Nordeste 24 Norte 0 955.9 -- 56
2020-10-27 10:00:00 11.3 7 Nordeste 30 Norte 0 955.8 -- 60
2020-10-27 09:00:00 10.2 18 Norte 30 Nordeste 0 955.2 -- 59
2020-10-27 08:00:00 9.2 14 Norte 28 Norte 0 954.7 -- 63
2020-10-27 07:00:00 9.3 15 Norte 37 Norte 0 954.6 -- 62
2020-10-27 06:00:00 9.3 28 Norte 39 Nordeste 0 954.2 -- 76
2020-10-27 05:00:00 9.6 20 Nordeste 31 Nordeste 0 954.3 -- 70
2020-10-27 04:00:00 9.1 4 Sudoeste 27 Nordeste 0 954.7 -- 76
2020-10-27 03:00:00 9.6 13 Norte 33 Norte 0 955.2 -- 75
2020-10-27 02:00:00 9.3 20 Norte 30 Nordeste 0 955.6 -- 75
2020-10-27 01:00:00 8.7 4 Noroeste 18 Nordeste 0 956.1 -- 77
2020-10-27 00:00:00 7.9 13 Nordeste 18 Nordeste 0 956.2 -- 84
2020-10-26 23:00:00 7.8 6 Nordeste 10 Nordeste 0 956.1 -- 85
2020-10-26 22:00:00 9.6 5 Oeste 18 Noroeste 0 955.9 -- 73
2020-10-26 21:00:00 10.4 11 Norte 20 Nordeste 0 955.5 -- 70
2020-10-26 20:00:00 9.9 2 Sudoeste 19 Noroeste 0 955.3 -- 71
2020-10-26 19:00:00 10.9 12 Norte 22 Norte 0 954.7 -- 67
2020-10-26 18:00:00 12.5 14 Norte 33 Norte 0 954.5 -- 56
2020-10-26 17:00:00 13.8 16 Norte 31 Noroeste 0 954.4 -- 54
2020-10-26 16:00:00 13.9 10 Norte 29 Noroeste 0 954.5 -- 54
2020-10-26 15:00:00 13.6 12 Noroeste 37 Norte 0 954.6 -- 58
2020-10-26 14:00:00 13.5 14 Noroeste 40 Norte 0 954.8 -- 58
2020-10-26 13:00:00 12.6 20 Norte 41 Norte 0 955 -- 62
2020-10-26 12:00:00 11.7 23 Norte 36 Norte 0 955.1 -- 65
2020-10-26 11:00:00 10.3 19 Norte 36 Norte 0 955.1 -- 77
2020-10-26 10:00:00 10.5 14 Norte 33 Noroeste 0 954.8 -- 77
2020-10-26 09:00:00 8.8 5 Noroeste 15 Norte 0 954.3 -- 91
2020-10-26 08:00:00 7.9 6 Sudoeste 11 Sudoeste 0 953.5 -- 100
2020-10-26 07:00:00 8.1 5 Oeste 22 Norte 0 952.7 -- 100
2020-10-26 06:00:00 9.1 7 Noroeste 31 Noroeste 0 952.4 -- 90
2020-10-26 05:00:00 9.5 9 Noroeste 26 Noroeste 0 952 -- 94
2020-10-26 04:00:00 9.4 14 Noroeste 31 Noroeste 0 951.9 -- 91
2020-10-26 03:00:00 9.6 13 Norte 34 Noroeste 0 951.5 -- 91
2020-10-26 02:00:00 10.1 18 Norte 35 Norte 0 951.6 -- 83
2020-10-26 01:00:00 10.8 15 Norte 49 Norte 0 951.5 -- 91
2020-10-26 00:00:00 11.5 21 Noroeste 41 Noroeste 0 951.2 -- 92